Time;durP1;ratioP1;P1;durP2;ratioP2;P2;SDS_P1;SDS_P2;PMS_P1;PMS_P2;Temp;Humidity;BMP_temperature;BMP_pressure;BME280_temperature;BME280_humidity;BME280_pressure;Samples;Min_cycle;Max_cycle;Signal;HPM_P1;HPM_P2
2023/12/03 00:00:48;;;;;;;45.07;16.23;;;-1.20;99.90;;;;;;4954475;29;20666;-80
2023/12/03 00:03:16;;;;;;;40.87;15.83;;;-1.30;99.90;;;;;;4952723;29;20197;-81
2023/12/03 00:05:43;;;;;;;40.90;15.57;;;-1.20;99.90;;;;;;4937236;29;20195;-80
2023/12/03 00:08:11;;;;;;;38.50;14.70;;;-1.40;99.90;;;;;;4954270;29;20507;-80
2023/12/03 00:10:38;;;;;;;39.50;15.20;;;-1.30;99.90;;;;;;4953662;29;20718;-80
2023/12/03 00:13:06;;;;;;;38.77;15.20;;;-1.40;99.90;;;;;;4952476;28;20201;-80
2023/12/03 00:15:33;;;;;;;36.83;13.80;;;-1.40;99.90;;;;;;4952686;29;20707;-80
2023/12/03 00:18:00;;;;;;;32.63;13.40;;;-1.30;99.90;;;;;;4953936;29;20201;-80
2023/12/03 00:20:27;;;;;;;38.70;14.23;;;-1.50;99.90;;;;;;4952789;29;20590;-81
2023/12/03 00:22:55;;;;;;;33.17;13.50;;;-1.50;99.90;;;;;;4953948;29;20285;-81
2023/12/03 00:25:22;;;;;;;37.90;15.40;;;-1.40;99.90;;;;;;4953895;29;20228;-80
2023/12/03 00:27:49;;;;;;;36.37;13.67;;;-1.40;99.90;;;;;;4956903;28;20200;-81
2023/12/03 00:30:22;;;;;;;37.53;14.47;;;-1.40;99.90;;;;;;4957450;29;20194;-81
2023/12/03 00:32:49;;;;;;;33.33;13.40;;;-1.30;99.90;;;;;;4956954;29;20200;-80
2023/12/03 00:35:16;;;;;;;33.30;13.27;;;-1.30;99.90;;;;;;4957318;29;20218;-80
2023/12/03 00:37:44;;;;;;;34.57;13.20;;;-1.30;99.90;;;;;;4957108;29;20205;-81
2023/12/03 00:40:11;;;;;;;34.67;13.47;;;-1.40;99.90;;;;;;4957030;29;20206;-81
2023/12/03 00:42:39;;;;;;;35.83;13.37;;;-1.40;99.90;;;;;;4957259;29;20215;-81
2023/12/03 00:45:06;;;;;;;31.47;12.83;;;-1.40;99.90;;;;;;4957294;29;20565;-81
2023/12/03 00:47:34;;;;;;;31.10;12.73;;;-1.40;99.90;;;;;;4955814;29;20198;-81
2023/12/03 00:50:01;;;;;;;32.23;12.23;;;-1.30;99.90;;;;;;4957082;29;20210;-81
2023/12/03 00:52:29;;;;;;;29.83;12.57;;;-1.40;99.90;;;;;;4940004;29;20293;-81
2023/12/03 00:54:56;;;;;;;33.50;12.83;;;-1.40;99.90;;;;;;4956457;29;20230;-81
2023/12/03 00:57:26;;;;;;;31.60;13.33;;;-1.40;99.90;;;;;;4956847;29;20241;-81
2023/12/03 00:59:53;;;;;;;32.30;13.10;;;-1.40;99.90;;;;;;4923809;29;20206;-80
2023/12/03 01:02:21;;;;;;;32.80;13.40;;;-1.40;99.90;;;;;;4956824;29;20199;-81
2023/12/03 01:04:48;;;;;;;32.63;12.57;;;-1.40;99.90;;;;;;4956550;29;20196;-81
2023/12/03 01:07:15;;;;;;;29.97;12.87;;;-1.40;99.90;;;;;;4956546;29;20200;-81
2023/12/03 01:09:45;;;;;;;32.70;11.83;;;-1.40;99.90;;;;;;4924174;29;20608;-81
2023/12/03 01:12:12;;;;;;;30.90;12.20;;;-1.40;99.90;;;;;;4956901;29;20217;-81
2023/12/03 01:14:40;;;;;;;30.13;12.17;;;-1.30;99.90;;;;;;4939361;29;20228;-81
2023/12/03 01:17:07;;;;;;;31.20;12.13;;;-1.40;99.90;;;;;;4956399;29;20220;-81
2023/12/03 01:19:34;;;;;;;31.27;12.07;;;-1.40;99.90;;;;;;4939442;29;20770;-81
2023/12/03 01:22:02;;;;;;;30.30;11.20;;;-1.50;99.90;;;;;;4939510;29;20209;-81
2023/12/03 01:24:29;;;;;;;28.27;12.13;;;-1.50;99.90;;;;;;4923198;29;20195;-81
2023/12/03 01:26:57;;;;;;;30.63;11.87;;;-1.50;99.90;;;;;;4939597;29;20232;-81
2023/12/03 01:29:24;;;;;;;27.63;11.67;;;-1.40;99.90;;;;;;4956469;29;20209;-81
2023/12/03 01:31:51;;;;;;;28.67;12.20;;;-1.40;99.90;;;;;;4939186;29;20205;-81
2023/12/03 01:34:18;;;;;;;28.77;11.23;;;-1.50;99.90;;;;;;4956440;29;20194;-81
2023/12/03 01:36:46;;;;;;;28.10;11.97;;;-1.50;99.90;;;;;;4956346;29;20318;-81
2023/12/03 01:39:13;;;;;;;30.50;11.87;;;-1.50;99.90;;;;;;4955569;28;20263;-81
2023/12/03 01:41:41;;;;;;;32.07;11.70;;;-1.40;99.90;;;;;;4938862;29;20809;-81
2023/12/03 01:44:09;;;;;;;29.97;11.40;;;-1.50;99.90;;;;;;4956307;29;20259;-81
2023/12/03 01:46:36;;;;;;;26.70;11.83;;;-1.40;99.90;;;;;;4956017;29;20188;-81
2023/12/03 01:49:03;;;;;;;34.50;12.97;;;-1.50;99.90;;;;;;4955828;29;20667;-81
2023/12/03 01:51:31;;;;;;;29.10;11.80;;;-1.60;99.90;;;;;;4956533;29;20207;-87
2023/12/03 01:53:59;;;;;;;34.43;12.67;;;-1.60;99.90;;;;;;4956229;29;20203;-90
2023/12/03 01:56:27;;;;;;;30.60;11.60;;;-1.60;99.90;;;;;;4956579;29;20290;-91
2023/12/03 01:58:56;;;;;;;29.70;11.53;;;-1.50;99.90;;;;;;4939863;29;20323;-90
2023/12/03 02:01:25;;;;;;;26.27;11.07;;;-1.50;99.90;;;;;;4939559;29;20293;-90
2023/12/03 02:03:52;;;;;;;26.20;11.53;;;-1.60;99.90;;;;;;4942674;29;20206;-87
2023/12/03 02:06:20;;;;;;;29.83;11.50;;;-1.40;99.90;;;;;;4955693;29;20213;-86
2023/12/03 02:08:49;;;;;;;27.83;11.50;;;-1.50;99.90;;;;;;4955563;29;20218;-85
2023/12/03 02:11:16;;;;;;;25.33;11.00;;;-1.50;99.90;;;;;;4938137;29;20273;-83
2023/12/03 02:13:44;;;;;;;28.73;11.60;;;-1.40;99.90;;;;;;4955706;29;20200;-84
2023/12/03 02:16:11;;;;;;;29.60;11.67;;;-1.50;99.90;;;;;;4955245;29;20271;-84
2023/12/03 02:18:39;;;;;;;26.43;11.03;;;-1.60;99.90;;;;;;4955267;29;20195;-84
2023/12/03 02:21:08;;;;;;;28.93;11.73;;;-1.60;99.90;;;;;;4954223;29;20263;-84
2023/12/03 02:23:36;;;;;;;28.37;11.27;;;-1.50;99.90;;;;;;4938771;29;20193;-84
2023/12/03 02:26:04;;;;;;;28.03;11.40;;;-1.50;99.90;;;;;;4938163;29;20217;-85
2023/12/03 02:28:31;;;;;;;26.77;11.33;;;-1.40;99.90;;;;;;4937968;29;20205;-85
2023/12/03 02:31:00;;;;;;;25.00;10.90;;;-1.40;99.90;;;;;;4938319;29;20277;-84
2023/12/03 02:33:28;;;;;;;27.97;11.30;;;-1.60;99.90;;;;;;4938352;29;20566;-84
2023/12/03 02:35:55;;;;;;;21.20;9.40;;;-1.70;99.90;;;;;;4937887;29;20210;-84
2023/12/03 02:38:23;;;;;;;33.60;11.93;;;-1.70;99.90;;;;;;4954863;29;20246;-84
2023/12/03 02:40:50;;;;;;;23.67;10.40;;;-1.70;99.90;;;;;;4954652;29;20214;-84
2023/12/03 02:43:17;;;;;;;27.93;10.87;;;-1.70;99.90;;;;;;4937825;29;20302;-84
2023/12/03 02:45:44;;;;;;;25.03;10.33;;;-1.70;99.90;;;;;;4921119;29;20293;-83
2023/12/03 02:48:12;;;;;;;24.93;10.73;;;-1.70;99.90;;;;;;4954754;29;20202;-84
2023/12/03 02:50:39;;;;;;;24.47;10.17;;;-1.80;99.90;;;;;;4937738;29;20543;-84
2023/12/03 02:53:06;;;;;;;24.93;10.70;;;-1.70;99.90;;;;;;4954701;29;20196;-84
2023/12/03 02:55:33;;;;;;;26.23;11.40;;;-1.60;99.90;;;;;;4954592;29;20232;-84
2023/12/03 02:58:01;;;;;;;31.57;11.47;;;-1.60;99.90;;;;;;4955148;29;20190;-84
2023/12/03 03:00:28;;;;;;;26.10;10.73;;;-1.70;99.90;;;;;;4954975;29;20206;-84
2023/12/03 03:02:55;;;;;;;28.17;11.50;;;-1.60;99.90;;;;;;4954600;29;20305;-85
2023/12/03 03:05:23;;;;;;;27.57;11.43;;;-1.70;99.90;;;;;;4937213;29;20274;-84
2023/12/03 03:07:51;;;;;;;31.17;12.60;;;-1.70;99.90;;;;;;4937112;29;20194;-84
2023/12/03 03:10:18;;;;;;;31.43;12.57;;;-1.70;99.90;;;;;;4954317;29;20191;-85
2023/12/03 03:12:45;;;;;;;36.37;12.80;;;-1.80;99.90;;;;;;4954681;29;20608;-84
2023/12/03 03:15:13;;;;;;;32.60;13.03;;;-1.70;99.90;;;;;;4937781;29;20486;-84
2023/12/03 03:17:40;;;;;;;29.53;13.27;;;-1.80;99.90;;;;;;4937515;29;20686;-84
2023/12/03 03:20:08;;;;;;;36.77;14.33;;;-1.70;99.90;;;;;;4954814;29;20204;-81
2023/12/03 03:22:36;;;;;;;32.87;13.77;;;-1.70;99.90;;;;;;4954447;29;20213;-84
2023/12/03 03:25:04;;;;;;;35.40;13.23;;;-1.60;99.90;;;;;;4921539;29;20296;-84
2023/12/03 03:27:31;;;;;;;35.83;14.80;;;-1.70;99.90;;;;;;4954805;29;20217;-85
2023/12/03 03:29:59;;;;;;;38.97;15.60;;;-1.70;99.90;;;;;;4938047;29;20213;-85
2023/12/03 03:32:26;;;;;;;39.53;15.23;;;-1.60;99.90;;;;;;4937849;29;20191;-84
2023/12/03 03:34:54;;;;;;;40.73;16.07;;;-1.50;99.90;;;;;;4954727;29;20199;-84
2023/12/03 03:37:21;;;;;;;36.33;15.70;;;-1.60;99.90;;;;;;4937508;29;20259;-85
2023/12/03 03:39:49;;;;;;;39.63;16.60;;;-1.60;99.90;;;;;;4954588;29;20238;-84
2023/12/03 03:42:16;;;;;;;41.97;17.03;;;-1.60;99.90;;;;;;4937312;29;20272;-85
2023/12/03 03:44:43;;;;;;;39.83;16.07;;;-1.50;99.90;;;;;;4938424;29;20204;-85
2023/12/03 03:47:13;;;;;;;41.93;17.17;;;-1.50;99.90;;;;;;4922270;29;20643;-85
2023/12/03 03:49:41;;;;;;;36.30;15.63;;;-1.50;99.90;;;;;;4937780;29;20562;-84
2023/12/03 03:52:08;;;;;;;42.80;17.20;;;-1.40;99.90;;;;;;4954939;29;20205;-84
2023/12/03 03:54:42;;;;;;;38.93;16.07;;;-1.50;99.90;;;;;;4954302;29;20198;-84
2023/12/03 03:57:09;;;;;;;37.60;17.07;;;-1.50;99.90;;;;;;4937374;29;20241;-84
2023/12/03 03:59:36;;;;;;;41.40;16.10;;;-1.40;99.90;;;;;;4937414;29;20213;-85
2023/12/03 04:02:04;;;;;;;39.07;16.73;;;-1.50;99.90;;;;;;4939842;29;20198;-84
2023/12/03 04:04:31;;;;;;;40.07;16.13;;;-1.40;99.90;;;;;;4959006;29;20195;-85
2023/12/03 04:06:59;;;;;;;40.47;17.93;;;-1.30;99.90;;;;;;4958181;29;20233;-85
2023/12/03 04:09:27;;;;;;;40.73;16.70;;;-1.30;99.90;;;;;;4941538;29;20298;-84
2023/12/03 04:11:54;;;;;;;39.33;15.80;;;-1.40;99.90;;;;;;4941794;29;20646;-84
2023/12/03 04:14:22;;;;;;;39.80;15.77;;;-1.60;99.90;;;;;;4958794;29;20188;-83
2023/12/03 04:16:49;;;;;;;39.27;16.63;;;-1.60;99.90;;;;;;4942398;29;20229;-85
2023/12/03 04:19:17;;;;;;;43.37;16.83;;;-1.60;99.90;;;;;;4925051;29;20253;-85
2023/12/03 04:21:44;;;;;;;40.27;15.33;;;-1.60;99.90;;;;;;4940907;29;20565;-86
2023/12/03 04:24:12;;;;;;;40.43;15.20;;;-1.60;99.90;;;;;;4958061;29;20197;-85
2023/12/03 04:26:43;;;;;;;39.00;15.53;;;-1.50;99.90;;;;;;4958022;29;20264;-84
2023/12/03 04:29:10;;;;;;;38.10;14.97;;;-1.50;99.90;;;;;;4940374;29;20219;-84
2023/12/03 04:31:37;;;;;;;38.50;15.03;;;-1.50;99.90;;;;;;4958305;29;20286;-85
2023/12/03 04:34:04;;;;;;;38.03;15.90;;;-1.40;99.90;;;;;;4958831;29;20192;-85
2023/12/03 04:36:31;;;;;;;40.30;15.83;;;-1.50;99.90;;;;;;4959350;29;20309;-85
2023/12/03 04:38:59;;;;;;;37.37;15.80;;;-1.50;99.90;;;;;;4940558;29;20739;-83
2023/12/03 04:41:37;;;;;;;36.13;14.87;;;-1.50;99.90;;;;;;4940122;29;20287;-84
2023/12/03 04:44:05;;;;;;;37.27;15.03;;;-1.50;99.90;;;;;;4940341;29;20212;-85
2023/12/03 04:46:32;;;;;;;34.83;15.07;;;-1.50;99.90;;;;;;4957416;29;20561;-85
2023/12/03 04:48:59;;;;;;;37.63;15.00;;;-1.30;99.90;;;;;;4940427;29;20199;-85
2023/12/03 04:51:26;;;;;;;37.93;14.67;;;-1.40;99.90;;;;;;4957149;29;20723;-84
2023/12/03 04:53:54;;;;;;;35.67;14.27;;;-1.30;99.90;;;;;;4957375;29;20194;-84
2023/12/03 04:56:21;;;;;;;36.13;14.90;;;-1.40;99.90;;;;;;4939747;29;20245;-84
2023/12/03 04:58:49;;;;;;;35.20;14.47;;;-1.40;99.90;;;;;;4957400;29;20202;-85
2023/12/03 05:01:19;;;;;;;36.20;15.13;;;-1.50;99.90;;;;;;4957472;29;20274;-85
2023/12/03 05:03:46;;;;;;;36.57;14.77;;;-1.40;99.90;;;;;;4957598;29;20271;-84
2023/12/03 05:06:14;;;;;;;36.40;14.33;;;-1.40;99.90;;;;;;4939482;29;20199;-85
2023/12/03 05:08:42;;;;;;;32.43;14.87;;;-1.30;99.90;;;;;;4939737;29;20202;-85
2023/12/03 05:11:09;;;;;;;36.83;15.33;;;-1.20;99.90;;;;;;4956565;29;20218;-84
2023/12/03 05:13:36;;;;;;;36.77;15.40;;;-1.20;99.90;;;;;;4955498;28;20196;-84
2023/12/03 05:16:04;;;;;;;37.83;15.53;;;-1.20;99.90;;;;;;4939512;29;20243;-85
2023/12/03 05:18:32;;;;;;;41.60;16.07;;;-1.30;99.90;;;;;;4939406;29;20193;-85
2023/12/03 05:20:59;;;;;;;43.13;15.60;;;-1.30;99.90;;;;;;4939467;29;20249;-84
2023/12/03 05:23:26;;;;;;;39.67;15.23;;;-1.30;99.90;;;;;;4954996;29;20216;-85
2023/12/03 05:25:54;;;;;;;41.10;15.17;;;-1.40;99.90;;;;;;4956458;29;20223;-84
2023/12/03 05:28:22;;;;;;;39.93;15.63;;;-1.40;99.90;;;;;;4939438;29;20199;-84
2023/12/03 05:30:49;;;;;;;38.57;15.77;;;-1.30;99.90;;;;;;4956897;29;20525;-84
2023/12/03 05:33:16;;;;;;;41.77;15.90;;;-1.20;99.90;;;;;;4939763;29;20227;-84
2023/12/03 05:35:44;;;;;;;39.07;15.77;;;-1.20;99.90;;;;;;4939687;29;20574;-85
2023/12/03 05:38:11;;;;;;;40.30;15.13;;;-1.20;99.90;;;;;;4955752;29;20218;-85
2023/12/03 05:40:38;;;;;;;40.73;15.63;;;-1.20;99.90;;;;;;4955923;29;20246;-84
2023/12/03 05:43:05;;;;;;;39.73;14.93;;;-1.10;99.90;;;;;;4938792;29;20249;-84
2023/12/03 05:45:33;;;;;;;45.33;14.87;;;-1.10;99.90;;;;;;4938636;29;20571;-84
2023/12/03 05:48:00;;;;;;;41.43;15.43;;;-1.20;99.90;;;;;;4956148;29;20190;-84
2023/12/03 05:50:27;;;;;;;42.10;15.33;;;-1.20;99.90;;;;;;4938527;29;20204;-84
2023/12/03 05:52:54;;;;;;;38.30;15.77;;;-1.30;99.90;;;;;;4938552;29;20218;-84
2023/12/03 05:55:22;;;;;;;44.80;14.37;;;-1.30;99.90;;;;;;4922189;29;20235;-84
2023/12/03 05:57:49;;;;;;;43.57;15.20;;;-1.20;99.90;;;;;;4955543;29;20221;-85
2023/12/03 06:00:17;;;;;;;43.73;15.23;;;-1.30;99.90;;;;;;4955628;29;20199;-84
2023/12/03 06:02:45;;;;;;;42.73;16.27;;;-1.30;99.90;;;;;;4938529;29;20192;-84
2023/12/03 06:05:12;;;;;;;43.87;16.17;;;-1.20;99.90;;;;;;4955881;29;20203;-84
2023/12/03 06:07:40;;;;;;;48.70;16.57;;;-1.30;99.90;;;;;;4955583;29;20715;-85
2023/12/03 06:10:08;;;;;;;44.83;16.10;;;-1.20;99.90;;;;;;4954274;29;20204;-85
2023/12/03 06:12:35;;;;;;;45.27;16.93;;;-1.20;99.90;;;;;;4938789;29;20204;-85
2023/12/03 06:15:03;;;;;;;44.67;16.80;;;-1.20;99.90;;;;;;4955621;29;20351;-85
2023/12/03 06:17:30;;;;;;;47.73;17.17;;;-1.10;99.90;;;;;;4938080;29;20229;-84
2023/12/03 06:19:58;;;;;;;55.33;19.93;;;-1.10;99.90;;;;;;4955617;29;20568;-83
2023/12/03 06:22:25;;;;;;;50.63;18.03;;;-1.20;99.90;;;;;;4938580;29;20203;-84
2023/12/03 06:24:52;;;;;;;52.77;18.80;;;-1.10;99.90;;;;;;4938424;29;20285;-84
2023/12/03 06:27:20;;;;;;;51.33;19.33;;;-1.10;99.90;;;;;;4955357;29;20211;-85
2023/12/03 06:29:47;;;;;;;51.43;18.47;;;-1.00;99.90;;;;;;4953834;29;20566;-84
2023/12/03 06:32:14;;;;;;;55.63;17.47;;;-1.00;99.90;;;;;;4921554;29;20212;-85
2023/12/03 06:34:42;;;;;;;50.93;18.27;;;-0.90;99.90;;;;;;4937865;29;20199;-85
2023/12/03 06:37:09;;;;;;;51.93;18.00;;;-1.10;99.90;;;;;;4937658;29;20270;-85
2023/12/03 06:39:36;;;;;;;48.57;17.53;;;-1.10;99.90;;;;;;4954759;29;20315;-85
2023/12/03 06:42:05;;;;;;;52.67;18.83;;;-0.90;99.90;;;;;;4954713;28;20711;-85
2023/12/03 06:44:33;;;;;;;51.70;17.87;;;-1.00;99.90;;;;;;4954912;29;20196;-85
2023/12/03 06:47:10;;;;;;;50.60;17.23;;;-0.90;99.90;;;;;;4939340;29;20193;-84
2023/12/03 06:49:37;;;;;;;46.07;16.33;;;-1.00;99.90;;;;;;4937987;29;20225;-83
2023/12/03 06:52:05;;;;;;;51.87;17.77;;;-1.00;99.90;;;;;;4954098;29;20205;-83
2023/12/03 06:54:32;;;;;;;50.13;17.50;;;-1.00;99.90;;;;;;4937943;29;20249;-84
2023/12/03 06:56:59;;;;;;;48.73;18.60;;;-1.10;99.90;;;;;;4955043;29;20288;-82
2023/12/03 06:59:26;;;;;;;58.90;19.90;;;-1.10;99.90;;;;;;4938150;29;20233;-84
2023/12/03 07:01:53;;;;;;;55.40;18.40;;;-1.10;99.90;;;;;;4955536;29;20206;-84
2023/12/03 07:04:22;;;;;;;55.10;19.10;;;-1.10;99.90;;;;;;4938372;29;20665;-85
2023/12/03 07:06:49;;;;;;;51.93;18.60;;;-1.10;99.90;;;;;;4922133;29;20234;-85
2023/12/03 07:09:16;;;;;;;53.73;19.00;;;-1.10;99.90;;;;;;4937798;29;20206;-84
2023/12/03 07:12:03;;;;;;;58.10;18.90;;;-1.10;99.90;;;;;;4940844;29;20692;-85
2023/12/03 07:14:31;;;;;;;53.77;18.17;;;-1.20;99.90;;;;;;4921993;29;20278;-85
2023/12/03 07:16:58;;;;;;;58.30;19.10;;;-1.20;99.90;;;;;;4956690;29;20208;-85
2023/12/03 07:19:25;;;;;;;50.37;17.53;;;-1.20;99.90;;;;;;4937907;29;20199;-85
2023/12/03 07:21:52;;;;;;;49.63;17.77;;;-1.20;99.90;;;;;;4954834;29;20183;-85
2023/12/03 07:24:21;;;;;;;55.90;19.67;;;-1.10;99.90;;;;;;4937406;29;20234;-85
2023/12/03 07:26:48;;;;;;;56.23;17.93;;;-1.20;99.90;;;;;;4953239;28;20229;-85
2023/12/03 07:29:19;;;;;;;49.37;17.23;;;-1.10;99.90;;;;;;4954699;29;20190;-84
2023/12/03 07:31:46;;;;;;;50.50;17.80;;;-1.10;99.90;;;;;;4937651;29;20208;-85
2023/12/03 07:34:13;;;;;;;50.90;17.47;;;-1.20;99.90;;;;;;4955484;29;20206;-84
2023/12/03 07:36:40;;;;;;;47.70;17.00;;;-1.10;99.90;;;;;;4956656;29;20194;-83
2023/12/03 07:39:08;;;;;;;47.80;17.03;;;-1.10;99.90;;;;;;4925964;29;20211;-84
2023/12/03 07:41:38;;;;;;;40.50;15.70;;;-1.10;99.90;;;;;;4940872;29;20211;-85
2023/12/03 07:44:05;;;;;;;47.13;16.73;;;-1.10;99.90;;;;;;4939268;29;20199;-84
2023/12/03 07:46:35;;;;;;;45.67;17.10;;;-1.10;99.90;;;;;;4939695;29;20198;-83
2023/12/03 07:49:03;;;;;;;42.07;15.27;;;-1.20;99.90;;;;;;4954560;29;20186;-84
2023/12/03 07:51:31;;;;;;;46.97;16.87;;;-1.10;99.90;;;;;;4954874;29;20192;-84
2023/12/03 07:53:58;;;;;;;41.53;16.13;;;-1.10;99.90;;;;;;4937574;29;20206;-84
2023/12/03 07:56:40;;;;;;;49.13;17.70;;;-1.00;99.90;;;;;;4937133;29;20324;-84
2023/12/03 07:59:08;;;;;;;46.30;17.70;;;-1.00;99.90;;;;;;4953147;29;20202;-84
2023/12/03 08:01:36;;;;;;;46.00;17.30;;;-1.00;99.90;;;;;;4954499;29;20197;-84
2023/12/03 08:04:03;;;;;;;52.73;18.57;;;-0.90;99.90;;;;;;4937661;29;20200;-84
2023/12/03 08:06:32;;;;;;;56.70;18.00;;;-0.90;99.90;;;;;;4954268;29;20193;-85
2023/12/03 08:08:59;;;;;;;53.53;18.47;;;-0.90;99.90;;;;;;4937355;29;20211;-84
2023/12/03 08:11:27;;;;;;;55.67;18.97;;;-0.80;99.90;;;;;;4954172;29;20207;-84
2023/12/03 08:13:54;;;;;;;49.77;18.37;;;-0.80;99.90;;;;;;4937028;29;20196;-84
2023/12/03 08:16:22;;;;;;;50.83;19.10;;;-0.80;99.90;;;;;;4937016;29;20262;-83
2023/12/03 08:18:49;;;;;;;52.77;18.90;;;-0.80;99.90;;;;;;4936773;29;20216;-84
2023/12/03 08:21:17;;;;;;;48.23;18.80;;;-0.70;99.90;;;;;;4920660;29;20196;-84
2023/12/03 08:23:44;;;;;;;49.17;18.30;;;-0.70;99.90;;;;;;4936805;29;20208;-84
2023/12/03 08:26:11;;;;;;;51.50;18.90;;;-0.60;99.90;;;;;;4936767;29;20219;-84
2023/12/03 08:28:38;;;;;;;50.33;17.93;;;-0.60;99.90;;;;;;4936757;29;20212;-84
2023/12/03 08:31:08;;;;;;;52.60;18.13;;;-0.70;99.90;;;;;;4937171;29;20225;-84
2023/12/03 08:33:35;;;;;;;50.27;19.13;;;-0.50;99.90;;;;;;4937076;29;20197;-85
2023/12/03 08:36:02;;;;;;;56.53;20.13;;;-0.60;99.90;;;;;;4937526;29;20209;-84
2023/12/03 08:38:30;;;;;;;50.97;18.23;;;-0.50;99.90;;;;;;4954016;29;20228;-84
2023/12/03 08:40:57;;;;;;;52.50;19.73;;;-0.40;99.90;;;;;;4952720;29;20226;-85
2023/12/03 08:43:24;;;;;;;52.30;19.77;;;-0.40;99.90;;;;;;4953948;29;20204;-84
2023/12/03 08:45:51;;;;;;;56.57;19.97;;;-0.30;99.90;;;;;;4936909;29;20193;-84
2023/12/03 08:48:19;;;;;;;55.17;20.07;;;-0.40;99.90;;;;;;4939391;29;20200;-84
2023/12/03 08:50:46;;;;;;;54.27;19.50;;;-0.40;99.90;;;;;;4925630;29;20198;-83
2023/12/03 08:53:14;;;;;;;51.70;19.83;;;-0.40;99.90;;;;;;4939967;29;20289;-85
2023/12/03 08:55:41;;;;;;;53.37;19.27;;;-0.40;99.90;;;;;;4957222;29;20241;-85
2023/12/03 08:58:09;;;;;;;53.73;20.50;;;-0.50;99.90;;;;;;4956019;29;20331;-86
2023/12/03 09:00:36;;;;;;;54.70;20.97;;;-0.40;99.90;;;;;;4940801;29;20262;-87
2023/12/03 09:03:04;;;;;;;55.90;21.67;;;-0.30;99.90;;;;;;4924018;29;20202;-84
2023/12/03 09:05:32;;;;;;;61.73;21.97;;;-0.40;99.90;;;;;;4955850;29;20670;-86
2023/12/03 09:07:59;;;;;;;61.10;21.47;;;-0.40;99.90;;;;;;4957244;29;20199;-86
2023/12/03 09:10:26;;;;;;;59.73;21.93;;;-0.50;99.90;;;;;;4957191;29;20647;-83
2023/12/03 09:12:54;;;;;;;65.03;22.87;;;-0.60;99.90;;;;;;4957713;29;20222;-83
2023/12/03 09:15:22;;;;;;;57.60;21.83;;;-0.50;99.90;;;;;;4939855;29;20297;-84
2023/12/03 09:17:49;;;;;;;61.30;22.57;;;-0.60;99.90;;;;;;4940131;29;20213;-82
2023/12/03 09:20:16;;;;;;;59.00;21.40;;;-0.50;99.90;;;;;;4956991;29;20257;-84
2023/12/03 09:22:46;;;;;;;62.83;23.50;;;-0.60;99.90;;;;;;4939831;29;20197;-89
2023/12/03 09:25:14;;;;;;;71.30;23.53;;;-0.60;99.90;;;;;;4957904;28;20200;-86
2023/12/03 09:27:42;;;;;;;64.40;22.60;;;-0.50;99.90;;;;;;4940575;29;20210;-88
2023/12/03 09:30:11;;;;;;;58.37;20.93;;;-0.50;99.90;;;;;;4941425;29;20225;-86
2023/12/03 09:32:39;;;;;;;54.10;19.97;;;-0.40;99.90;;;;;;4944015;29;20187;-88
2023/12/03 09:35:07;;;;;;;49.03;17.93;;;-0.40;99.90;;;;;;4941227;29;20654;-85
2023/12/03 09:37:35;;;;;;;50.67;18.70;;;-0.40;99.90;;;;;;4940492;29;20251;-85
2023/12/03 09:40:03;;;;;;;46.97;17.57;;;-0.50;99.90;;;;;;4939690;29;20206;-85
2023/12/03 09:42:36;;;;;;;47.87;18.03;;;-0.40;99.90;;;;;;4923952;29;20329;-85
2023/12/03 09:45:07;;;;;;;47.10;18.07;;;-0.40;99.90;;;;;;4924329;29;20216;-84
2023/12/03 09:47:37;;;;;;;48.80;17.27;;;-0.40;99.90;;;;;;4940400;29;20197;-86
2023/12/03 09:50:06;;;;;;;50.63;18.70;;;-0.40;99.90;;;;;;4940365;29;20241;-85
2023/12/03 09:52:38;;;;;;;46.07;18.97;;;-0.30;99.90;;;;;;4939901;29;20300;-88
2023/12/03 09:55:07;;;;;;;46.93;18.27;;;-0.40;99.90;;;;;;4959529;29;20387;-88
2023/12/03 09:57:37;;;;;;;46.07;18.10;;;-0.50;99.90;;;;;;4960230;29;20236;-90
2023/12/03 10:00:05;;;;;;;46.77;17.40;;;-0.40;99.90;;;;;;4941965;29;20231;-88
2023/12/03 10:02:34;;;;;;;47.97;16.93;;;-0.40;99.90;;;;;;4957908;29;20202;-89
2023/12/03 10:05:02;;;;;;;45.25;18.17;;;-0.30;99.90;;;;;;4957457;29;20440;-90
2023/12/03 10:07:30;;;;;;;41.10;16.63;;;-0.60;99.90;;;;;;4958885;29;20195;-90
2023/12/03 10:09:58;;;;;;;41.40;16.40;;;-0.70;99.90;;;;;;4958610;29;20191;-84
2023/12/03 10:12:37;;;;;;;45.83;16.57;;;-0.60;99.90;;;;;;4955418;29;20687;-84
2023/12/03 10:15:05;;;;;;;45.37;16.57;;;-0.60;99.90;;;;;;4938427;29;20652;-84
2023/12/03 10:17:32;;;;;;;46.00;16.93;;;-0.50;99.90;;;;;;4955508;29;20224;-83
2023/12/03 10:20:21;;;;;;;46.17;16.33;;;-0.50;99.90;;;;;;4955259;28;20315;-84
2023/12/03 10:22:50;;;;;;;45.50;16.60;;;-0.60;99.90;;;;;;4955672;29;20224;-79
2023/12/03 10:25:34;;;;;;;48.90;17.37;;;-0.60;99.90;;;;;;4955190;29;20289;-80
2023/12/03 10:28:06;;;;;;;45.67;16.67;;;-0.60;99.90;;;;;;4955198;29;20201;-79
2023/12/03 10:30:38;;;;;;;50.63;17.00;;;-0.50;99.90;;;;;;4938185;29;20211;-79
2023/12/03 10:33:06;;;;;;;46.47;16.97;;;-0.40;99.90;;;;;;4955125;29;20194;-80
2023/12/03 10:35:35;;;;;;;46.03;16.97;;;-0.30;99.90;;;;;;4955298;29;20229;-80
2023/12/03 10:38:09;;;;;;;47.53;17.00;;;0.00;99.90;;;;;;4937705;29;20716;-79
2023/12/03 10:40:37;;;;;;;52.43;17.13;;;-0.10;99.90;;;;;;4955100;29;20247;-78
2023/12/03 10:43:05;;;;;;;45.03;15.93;;;-0.20;99.90;;;;;;4954950;29;20274;-79
2023/12/03 10:45:33;;;;;;;44.77;17.47;;;-0.10;99.90;;;;;;4955503;29;20201;-79
2023/12/03 10:48:04;;;;;;;45.80;17.03;;;-0.20;99.90;;;;;;4938006;29;20211;-80
2023/12/03 10:50:32;;;;;;;42.47;16.73;;;-0.20;99.90;;;;;;4938181;29;20193;-79
2023/12/03 10:53:01;;;;;;;41.73;16.43;;;0.00;99.90;;;;;;4955154;29;20201;-79
2023/12/03 10:55:28;;;;;;;38.03;14.80;;;0.00;99.90;;;;;;4954946;29;20777;-78
2023/12/03 10:58:02;;;;;;;44.00;15.87;;;0.00;99.90;;;;;;4954754;29;20213;-79
2023/12/03 11:00:55;;;;;;;45.03;16.93;;;-0.10;99.90;;;;;;4938816;29;20205;-85
2023/12/03 11:03:45;;;;;;;42.07;15.97;;;0.00;99.90;;;;;;4938944;29;20240;-84
2023/12/03 11:06:15;;;;;;;44.73;15.77;;;0.20;99.90;;;;;;4955042;28;20241;-84
2023/12/03 11:08:44;;;;;;;41.77;16.27;;;0.10;99.90;;;;;;4954685;28;20199;-84
2023/12/03 11:11:12;;;;;;;45.33;16.13;;;0.10;99.90;;;;;;4936869;29;20658;-84
2023/12/03 11:13:43;;;;;;;41.47;16.47;;;0.10;99.90;;;;;;4954695;29;20260;-83
2023/12/03 11:16:14;;;;;;;44.60;16.97;;;0.10;99.90;;;;;;4954572;29;20200;-83
2023/12/03 11:18:52;;;;;;;45.53;17.10;;;0.10;99.90;;;;;;4937326;29;20763;-83
2023/12/03 11:21:44;;;;;;;46.80;17.83;;;0.00;99.90;;;;;;4953590;29;20261;-84
2023/12/03 11:24:24;;;;;;;46.13;17.17;;;-0.10;99.90;;;;;;4954529;29;20286;-83
2023/12/03 11:26:52;;;;;;;42.43;17.57;;;-0.10;99.90;;;;;;4954411;29;20228;-83
2023/12/03 11:29:45;;;;;;;49.67;18.03;;;0.10;99.90;;;;;;4954685;29;20229;-84
2023/12/03 11:32:13;;;;;;;47.13;18.40;;;0.20;99.90;;;;;;4954397;29;20289;-84
2023/12/03 11:34:41;;;;;;;45.70;18.27;;;0.20;99.90;;;;;;4954430;29;20273;-82
2023/12/03 11:37:09;;;;;;;47.70;18.33;;;0.20;99.90;;;;;;4953457;29;20217;-84
2023/12/03 11:39:43;;;;;;;45.43;18.27;;;0.30;99.90;;;;;;4954497;29;20269;-83
2023/12/03 11:42:12;;;;;;;48.93;18.57;;;0.30;99.90;;;;;;4954484;29;20232;-83
2023/12/03 11:44:41;;;;;;;52.20;19.90;;;0.40;99.90;;;;;;4953304;29;20198;-85
2023/12/03 11:47:10;;;;;;;48.27;19.00;;;0.60;99.90;;;;;;4937602;29;20199;-84
2023/12/03 11:49:38;;;;;;;51.93;18.97;;;0.60;99.90;;;;;;4954700;29;20204;-84
2023/12/03 11:52:06;;;;;;;54.00;20.37;;;0.60;99.90;;;;;;4954139;29;20677;-83
2023/12/03 11:54:49;;;;;;;48.63;20.00;;;0.50;99.90;;;;;;4953997;29;20363;-83
2023/12/03 11:57:17;;;;;;;51.87;21.13;;;0.60;99.90;;;;;;4936957;29;20225;-84
2023/12/03 11:59:45;;;;;;;54.47;21.83;;;0.60;99.90;;;;;;4954553;29;20231;-84
2023/12/03 12:02:13;;;;;;;58.87;22.33;;;0.70;99.90;;;;;;4954074;29;20612;-84
2023/12/03 12:04:41;;;;;;;60.97;22.80;;;0.70;99.90;;;;;;4954070;29;20186;-85
2023/12/03 12:07:26;;;;;;;56.33;23.17;;;0.70;99.90;;;;;;4954236;29;20190;-84
2023/12/03 12:09:54;;;;;;;59.23;24.10;;;0.70;99.90;;;;;;4953873;29;20566;-84
2023/12/03 12:12:21;;;;;;;66.80;25.37;;;0.80;99.90;;;;;;4954184;29;20240;-84
2023/12/03 12:14:49;;;;;;;61.43;24.33;;;0.70;99.90;;;;;;4954316;29;20565;-84
2023/12/03 12:17:16;;;;;;;62.93;25.93;;;0.70;99.90;;;;;;4954116;29;20217;-83
2023/12/03 12:19:50;;;;;;;68.80;26.60;;;0.60;99.90;;;;;;4953961;29;20231;-83
2023/12/03 12:22:17;;;;;;;63.90;25.97;;;0.60;99.90;;;;;;4955139;28;20203;-85
2023/12/03 12:24:45;;;;;;;57.67;25.63;;;0.70;99.90;;;;;;4957455;29;20609;-82
2023/12/03 12:27:13;;;;;;;60.70;25.70;;;0.70;99.90;;;;;;4957634;29;20641;-82
2023/12/03 12:29:40;;;;;;;59.10;25.33;;;0.70;99.90;;;;;;4957666;29;20211;-82
2023/12/03 12:32:08;;;;;;;59.43;25.57;;;0.80;99.90;;;;;;4957645;29;20295;-83
2023/12/03 12:34:35;;;;;;;64.10;26.23;;;0.90;99.90;;;;;;4957308;29;20190;-81